sensor_id;sensor_type;location;lat;lon;timestamp;pressure;altitude;pressure_sealevel;temperature;humidity
66176;BME280;52977;44.816;20.538;2022-10-15T04:34:07;99849.47;;;12.68;100.00
66176;BME280;52977;44.816;20.538;2022-10-15T04:36:33;99836.59;;;12.39;100.00
66176;BME280;52977;44.816;20.538;2022-10-15T04:39:05;99979.03;;;13.49;100.00
66176;BME280;52977;44.816;20.538;2022-10-15T04:41:35;99983.69;;;13.49;100.00
66176;BME280;52977;44.816;20.538;2022-10-15T04:44:12;99971.97;;;13.19;100.00
66176;BME280;52977;44.816;20.538;2022-10-15T04:46:38;99986.03;;;13.38;100.00
66176;BME280;52977;44.816;20.538;2022-10-15T04:49:27;99986.16;;;13.42;100.00
66176;BME280;52977;44.816;20.538;2022-10-15T04:51:53;99906.50;;;12.96;100.00
66176;BME280;52977;44.816;20.538;2022-10-15T04:54:41;99931.03;;;13.13;100.00
66176;BME280;52977;44.816;20.538;2022-10-15T04:57:07;99966.94;;;13.21;100.00
66176;BME280;52977;44.816;20.538;2022-10-15T04:59:34;99955.53;;;13.19;100.00
66176;BME280;52977;44.816;20.538;2022-10-15T05:02:18;99977.75;;;13.47;100.00
66176;BME280;52977;44.816;20.538;2022-10-15T05:04:48;99978.53;;;13.47;100.00
66176;BME280;52977;44.816;20.538;2022-10-15T05:07:14;99982.69;;;13.54;100.00
66176;BME280;52977;44.816;20.538;2022-10-15T05:09:40;99972.94;;;13.44;100.00
66176;BME280;52977;44.816;20.538;2022-10-15T05:12:06;99960.06;;;13.14;100.00
66176;BME280;52977;44.816;20.538;2022-10-15T05:14:33;99980.09;;;13.06;100.00
66176;BME280;52977;44.816;20.538;2022-10-15T05:17:22;99976.03;;;13.12;100.00
66176;BME280;52977;44.816;20.538;2022-10-15T05:19:48;99992.03;;;13.31;100.00
66176;BME280;52977;44.816;20.538;2022-10-15T05:22:21;99977.75;;;13.17;100.00
66176;BME280;52977;44.816;20.538;2022-10-15T05:24:53;100004.75;;;13.36;100.00
66176;BME280;52977;44.816;20.538;2022-10-15T05:27:44;100001.81;;;13.41;100.00
66176;BME280;52977;44.816;20.538;2022-10-15T05:30:10;99928.22;;;13.01;100.00
66176;BME280;52977;44.816;20.538;2022-10-15T05:32:43;100003.44;;;13.33;100.00
66176;BME280;52977;44.816;20.538;2022-10-15T05:35:11;99979.97;;;13.24;100.00
66176;BME280;52977;44.816;20.538;2022-10-15T05:37:57;99934.97;;;13.04;100.00
66176;BME280;52977;44.816;20.538;2022-10-15T05:40:22;99963.06;;;13.22;100.00
66176;BME280;52977;44.816;20.538;2022-10-15T05:43:01;99991.31;;;13.43;100.00
66176;BME280;52977;44.816;20.538;2022-10-15T05:45:27;100009.31;;;13.53;100.00
66176;BME280;52977;44.816;20.538;2022-10-15T05:47:55;100017.19;;;13.55;100.00
66176;BME280;52977;44.816;20.538;2022-10-15T05:50:22;100012.66;;;13.38;100.00
66176;BME280;52977;44.816;20.538;2022-10-15T05:52:53;99983.56;;;13.15;100.00
66176;BME280;52977;44.816;20.538;2022-10-15T05:55:31;99990.75;;;13.29;100.00
66176;BME280;52977;44.816;20.538;2022-10-15T05:58:00;100009.56;;;13.39;100.00
66176;BME280;52977;44.816;20.538;2022-10-15T06:00:26;99991.19;;;13.10;100.00
66176;BME280;52977;44.816;20.538;2022-10-15T06:02:52;100040.50;;;13.10;100.00
66176;BME280;52977;44.816;20.538;2022-10-15T06:05:19;99999.38;;;12.89;100.00
66176;BME280;52977;44.816;20.538;2022-10-15T06:07:45;99994.78;;;13.02;100.00
66176;BME280;52977;44.816;20.538;2022-10-15T06:10:10;100039.38;;;13.41;100.00
66176;BME280;52977;44.816;20.538;2022-10-15T06:12:36;100008.16;;;13.03;100.00
66176;BME280;52977;44.816;20.538;2022-10-15T06:15:04;100027.00;;;13.34;100.00
66176;BME280;52977;44.816;20.538;2022-10-15T06:17:30;100039.81;;;13.52;100.00
66176;BME280;52977;44.816;20.538;2022-10-15T06:19:56;100046.38;;;13.38;100.00
66176;BME280;52977;44.816;20.538;2022-10-15T06:22:21;100041.53;;;13.35;100.00
66176;BME280;52977;44.816;20.538;2022-10-15T06:24:47;100000.41;;;13.05;100.00
66176;BME280;52977;44.816;20.538;2022-10-15T06:27:12;100022.28;;;13.14;100.00
66176;BME280;52977;44.816;20.538;2022-10-15T06:29:39;100053.88;;;13.11;100.00
66176;BME280;52977;44.816;20.538;2022-10-15T06:32:08;100057.56;;;13.24;100.00
66176;BME280;52977;44.816;20.538;2022-10-15T06:34:34;100056.19;;;13.39;100.00
66176;BME280;52977;44.816;20.538;2022-10-15T06:36:59;100050.72;;;13.30;100.00
66176;BME280;52977;44.816;20.538;2022-10-15T06:39:25;100055.19;;;13.44;100.00
66176;BME280;52977;44.816;20.538;2022-10-15T06:41:51;100009.31;;;13.02;100.00
66176;BME280;52977;44.816;20.538;2022-10-15T06:44:16;100068.75;;;13.40;100.00
66176;BME280;52977;44.816;20.538;2022-10-15T06:46:42;100072.31;;;13.32;100.00
66176;BME280;52977;44.816;20.538;2022-10-15T06:49:07;100065.06;;;13.06;100.00
66176;BME280;52977;44.816;20.538;2022-10-15T06:51:33;100024.47;;;12.99;100.00
66176;BME280;52977;44.816;20.538;2022-10-15T06:53:59;100086.69;;;13.29;100.00
66176;BME280;52977;44.816;20.538;2022-10-15T06:56:25;100086.53;;;13.34;100.00
66176;BME280;52977;44.816;20.538;2022-10-15T06:58:50;100074.13;;;13.28;100.00
66176;BME280;52977;44.816;20.538;2022-10-15T07:01:16;100089.09;;;13.39;100.00
66176;BME280;52977;44.816;20.538;2022-10-15T07:03:41;100082.47;;;13.40;100.00
66176;BME280;52977;44.816;20.538;2022-10-15T07:06:08;100051.91;;;13.21;100.00
66176;BME280;52977;44.816;20.538;2022-10-15T07:08:34;100067.47;;;13.38;100.00
66176;BME280;52977;44.816;20.538;2022-10-15T07:11:04;100082.50;;;13.31;100.00
66176;BME280;52977;44.816;20.538;2022-10-15T07:13:31;100042.97;;;13.03;100.00
66176;BME280;52977;44.816;20.538;2022-10-15T07:16:09;100092.44;;;13.45;100.00
66176;BME280;52977;44.816;20.538;2022-10-15T07:18:36;100074.53;;;13.47;100.00
66176;BME280;52977;44.816;20.538;2022-10-15T07:21:04;100080.09;;;13.60;100.00
66176;BME280;52977;44.816;20.538;2022-10-15T07:23:30;100087.38;;;13.56;100.00
66176;BME280;52977;44.816;20.538;2022-10-15T07:25:57;100081.47;;;13.66;100.00
66176;BME280;52977;44.816;20.538;2022-10-15T07:28:23;100086.09;;;13.74;100.00
66176;BME280;52977;44.816;20.538;2022-10-15T07:30:49;100056.41;;;13.55;100.00
66176;BME280;52977;44.816;20.538;2022-10-15T08:25:28;100116.13;;;14.34;100.00
66176;BME280;52977;44.816;20.538;2022-10-15T08:27:56;100070.56;;;14.21;100.00
66176;BME280;52977;44.816;20.538;2022-10-15T08:30:23;100093.75;;;14.44;100.00
66176;BME280;52977;44.816;20.538;2022-10-15T08:32:50;100078.16;;;14.36;99.56
66176;BME280;52977;44.816;20.538;2022-10-15T08:35:15;100092.84;;;14.52;99.01
66176;BME280;52977;44.816;20.538;2022-10-15T08:37:41;100098.09;;;14.45;99.99
66176;BME280;52977;44.816;20.538;2022-10-15T08:40:09;100101.78;;;14.49;98.72
66176;BME280;52977;44.816;20.538;2022-10-15T08:42:40;100087.59;;;14.47;98.74
66176;BME280;52977;44.816;20.538;2022-10-15T08:45:16;100071.19;;;14.39;98.53
66176;BME280;52977;44.816;20.538;2022-10-15T08:47:51;100096.06;;;14.55;98.42
66176;BME280;52977;44.816;20.538;2022-10-15T08:50:43;100102.94;;;14.61;98.25
66176;BME280;52977;44.816;20.538;2022-10-15T08:53:18;100101.34;;;14.60;96.08
66176;BME280;52977;44.816;20.538;2022-10-15T08:55:48;100103.03;;;14.52;96.94
66176;BME280;52977;44.816;20.538;2022-10-15T09:00:53;100090.16;;;14.65;94.94
66176;BME280;52977;44.816;20.538;2022-10-15T09:03:33;100097.84;;;14.72;94.68
66176;BME280;52977;44.816;20.538;2022-10-15T09:08:40;100085.41;;;14.86;94.36
66176;BME280;52977;44.816;20.538;2022-10-15T09:13:54;100076.34;;;14.86;93.40
66176;BME280;52977;44.816;20.538;2022-10-15T09:16:32;100022.34;;;14.44;91.63
66176;BME280;52977;44.816;20.538;2022-10-15T09:19:03;100086.31;;;14.91;91.44
66176;BME280;52977;44.816;20.538;2022-10-15T09:21:31;100096.75;;;14.97;92.51
66176;BME280;52977;44.816;20.538;2022-10-15T09:24:03;100094.47;;;14.99;89.82
66176;BME280;52977;44.816;20.538;2022-10-15T09:26:42;100098.56;;;15.06;nan
66176;BME280;52977;44.816;20.538;2022-10-15T09:32:24;100080.28;;;14.97;87.15
66176;BME280;52977;44.816;20.538;2022-10-15T09:37:38;100093.34;;;15.13;86.36
66176;BME280;52977;44.816;20.538;2022-10-15T09:40:30;100092.41;;;15.21;86.43
66176;BME280;52977;44.816;20.538;2022-10-15T09:43:02;100093.00;;;15.27;84.81
66176;BME280;52977;44.816;20.538;2022-10-15T09:45:29;100084.84;;;15.30;83.96
66176;BME280;52977;44.816;20.538;2022-10-15T09:47:58;100075.56;;;15.35;83.63
66176;BME280;52977;44.816;20.538;2022-10-15T09:50:41;100062.75;;;15.27;82.52
66176;BME280;52977;44.816;20.538;2022-10-15T09:53:21;100079.44;;;15.46;81.58
66176;BME280;52977;44.816;20.538;2022-10-15T09:56:02;100010.50;;;15.02;80.00
66176;BME280;52977;44.816;20.538;2022-10-15T09:58:36;100081.28;;;15.54;80.63
66176;BME280;52977;44.816;20.538;2022-10-15T10:01:07;100073.81;;;15.55;80.74
66176;BME280;52977;44.816;20.538;2022-10-15T10:03:41;100082.28;;;15.62;78.50
66176;BME280;52977;44.816;20.538;2022-10-15T10:06:09;100075.88;;;15.58;79.56
66176;BME280;52977;44.816;20.538;2022-10-15T10:08:49;100086.50;;;15.72;79.90
66176;BME280;52977;44.816;20.538;2022-10-15T10:11:17;100097.16;;;15.73;78.15
66176;BME280;52977;44.816;20.538;2022-10-15T10:13:50;100081.91;;;15.76;76.96
66176;BME280;52977;44.816;20.538;2022-10-15T10:16:18;100076.56;;;15.80;77.05
66176;BME280;52977;44.816;20.538;2022-10-15T10:19:13;100078.13;;;15.81;75.79
66176;BME280;52977;44.816;20.538;2022-10-15T10:21:41;100007.81;;;15.43;74.15
66176;BME280;52977;44.816;20.538;2022-10-15T10:24:28;100071.44;;;15.94;73.82
66176;BME280;52977;44.816;20.538;2022-10-15T10:26:56;100053.31;;;15.93;73.65
66176;BME280;52977;44.816;20.538;2022-10-15T10:29:22;100062.25;;;16.02;72.90
66176;BME280;52977;44.816;20.538;2022-10-15T10:31:50;100029.84;;;15.83;71.37
66176;BME280;52977;44.816;20.538;2022-10-15T10:34:31;100027.56;;;15.85;71.32
66176;BME280;52977;44.816;20.538;2022-10-15T10:37:02;100037.47;;;16.02;71.92
66176;BME280;52977;44.816;20.538;2022-10-15T10:39:33;100052.44;;;16.17;71.51
66176;BME280;52977;44.816;20.538;2022-10-15T10:42:25;100047.25;;;16.16;69.87
66176;BME280;52977;44.816;20.538;2022-10-15T10:44:52;100030.69;;;16.00;68.89
66176;BME280;52977;44.816;20.538;2022-10-15T10:47:21;100051.53;;;16.13;68.64
66176;BME280;52977;44.816;20.538;2022-10-15T10:52:38;100019.88;;;16.07;69.88
66176;BME280;52977;44.816;20.538;2022-10-15T10:55:15;100058.50;;;16.39;69.41
66176;BME280;52977;44.816;20.538;2022-10-15T10:57:48;100031.94;;;16.31;69.68
66176;BME280;52977;44.816;20.538;2022-10-15T11:02:50;100042.69;;;16.52;69.13
66176;BME280;52977;44.816;20.538;2022-10-15T11:05:32;100017.38;;;16.46;69.13
66176;BME280;52977;44.816;20.538;2022-10-15T11:08:21;100039.50;;;16.66;68.35
66176;BME280;52977;44.816;20.538;2022-10-15T11:11:03;100034.47;;;16.68;67.61
66176;BME280;52977;44.816;20.538;2022-10-15T11:16:43;100009.56;;;16.48;67.11
66176;BME280;52977;44.816;20.538;2022-10-15T11:24:43;99995.94;;;16.71;66.69
66176;BME280;52977;44.816;20.538;2022-10-15T11:30:12;99978.25;;;16.72;64.76
66176;BME280;52977;44.816;20.538;2022-10-15T11:32:58;99973.81;;;16.68;66.03
66176;BME280;52977;44.816;20.538;2022-10-15T11:54:08;100008.69;;;17.63;65.04
66176;BME280;52977;44.816;20.538;2022-10-15T11:56:38;100006.19;;;17.58;64.07
66176;BME280;52977;44.816;20.538;2022-10-15T12:01:59;99996.53;;;17.48;64.31
66176;BME280;52977;44.816;20.538;2022-10-15T12:04:48;99976.50;;;17.51;64.68
66176;BME280;52977;44.816;20.538;2022-10-15T12:07:22;100014.47;;;17.77;63.84
66176;BME280;52977;44.816;20.538;2022-10-15T12:09:52;100016.09;;;17.79;63.07
66176;BME280;52977;44.816;20.538;2022-10-15T12:15:18;100002.38;;;18.02;62.80
66176;BME280;52977;44.816;20.538;2022-10-15T12:17:56;99995.66;;;18.22;62.82
66176;BME280;52977;44.816;20.538;2022-10-15T12:20:26;99992.09;;;18.22;61.73
66176;BME280;52977;44.816;20.538;2022-10-15T12:22:55;99988.34;;;18.10;61.70
66176;BME280;52977;44.816;20.538;2022-10-15T12:28:17;99935.06;;;17.90;61.21
66176;BME280;52977;44.816;20.538;2022-10-15T12:30:59;99971.22;;;18.24;61.32
66176;BME280;52977;44.816;20.538;2022-10-15T12:36:23;99949.72;;;18.14;61.77
66176;BME280;52977;44.816;20.538;2022-10-15T12:39:05;99976.88;;;18.32;60.81
66176;BME280;52977;44.816;20.538;2022-10-15T12:41:38;99942.13;;;18.07;60.20
66176;BME280;52977;44.816;20.538;2022-10-15T12:44:20;99971.34;;;18.32;61.11
66176;BME280;52977;44.816;20.538;2022-10-15T12:46:48;99962.75;;;18.37;60.96
66176;BME280;52977;44.816;20.538;2022-10-15T12:51:53;99983.53;;;18.31;60.00
66176;BME280;52977;44.816;20.538;2022-10-15T12:54:40;99977.91;;;18.23;59.81
66176;BME280;52977;44.816;20.538;2022-10-15T12:59:59;99959.06;;;18.06;59.31
66176;BME280;52977;44.816;20.538;2022-10-15T13:05:05;99958.69;;;18.07;59.55
66176;BME280;52977;44.816;20.538;2022-10-15T13:07:34;99970.16;;;18.09;60.16
66176;BME280;52977;44.816;20.538;2022-10-15T13:10:03;99956.13;;;18.18;60.04
66176;BME280;52977;44.816;20.538;2022-10-15T13:12:30;99937.44;;;18.12;60.25
66176;BME280;52977;44.816;20.538;2022-10-15T13:14:59;99924.97;;;17.98;59.64
66176;BME280;52977;44.816;20.538;2022-10-15T13:17:29;99857.75;;;17.48;59.91
66176;BME280;52977;44.816;20.538;2022-10-15T13:20:07;99942.03;;;18.04;60.25
66176;BME280;52977;44.816;20.538;2022-10-15T13:22:48;99952.22;;;18.00;60.21
66176;BME280;52977;44.816;20.538;2022-10-15T13:25:15;99950.81;;;17.90;59.91
66176;BME280;52977;44.816;20.538;2022-10-15T13:27:41;99957.38;;;17.82;60.62
66176;BME280;52977;44.816;20.538;2022-10-15T13:32:51;99962.59;;;17.87;61.30
66176;BME280;52977;44.816;20.538;2022-10-15T13:35:28;99954.31;;;17.87;61.37
66176;BME280;52977;44.816;20.538;2022-10-15T13:37:57;99961.31;;;17.81;60.82
66176;BME280;52977;44.816;20.538;2022-10-15T13:40:26;99962.41;;;17.76;61.02
66176;BME280;52977;44.816;20.538;2022-10-15T13:42:59;99950.47;;;17.72;61.41
66176;BME280;52977;44.816;20.538;2022-10-15T13:45:25;99958.25;;;17.66;60.25
66176;BME280;52977;44.816;20.538;2022-10-15T13:47:52;99949.47;;;17.60;60.57
66176;BME280;52977;44.816;20.538;2022-10-15T13:50:26;99953.47;;;17.63;60.27
66176;BME280;52977;44.816;20.538;2022-10-15T13:55:31;99939.66;;;17.63;60.38
66176;BME280;52977;44.816;20.538;2022-10-15T13:58:01;99884.13;;;17.25;60.24
66176;BME280;52977;44.816;20.538;2022-10-15T14:00:30;99934.06;;;17.59;60.88
66176;BME280;52977;44.816;20.538;2022-10-15T14:03:13;99940.78;;;17.58;61.10
66176;BME280;52977;44.816;20.538;2022-10-15T14:05:42;99926.84;;;17.51;61.74
66176;BME280;52977;44.816;20.538;2022-10-15T14:08:22;99936.81;;;17.59;61.40
66176;BME280;52977;44.816;20.538;2022-10-15T14:10:51;99932.19;;;17.64;61.08
66176;BME280;52977;44.816;20.538;2022-10-15T14:13:17;99929.72;;;17.58;60.01
66176;BME280;52977;44.816;20.538;2022-10-15T14:18:42;99931.91;;;17.49;59.79
66176;BME280;52977;44.816;20.538;2022-10-15T14:21:10;99920.00;;;17.45;60.25
66176;BME280;52977;44.816;20.538;2022-10-15T14:23:38;99899.06;;;17.24;60.49
66176;BME280;52977;44.816;20.538;2022-10-15T14:26:04;99927.13;;;17.46;60.97
66176;BME280;52977;44.816;20.538;2022-10-15T14:28:32;99913.97;;;17.39;60.47
66176;BME280;52977;44.816;20.538;2022-10-15T14:31:00;99923.47;;;17.42;60.82
66176;BME280;52977;44.816;20.538;2022-10-15T14:33:32;99937.38;;;17.46;60.49
66176;BME280;52977;44.816;20.538;2022-10-15T14:36:23;99935.69;;;17.41;61.20
66176;BME280;52977;44.816;20.538;2022-10-15T14:38:50;99904.81;;;17.16;60.74
66176;BME280;52977;44.816;20.538;2022-10-15T14:41:27;99938.81;;;17.39;60.90
66176;BME280;52977;44.816;20.538;2022-10-15T14:44:15;99936.41;;;17.38;60.92
66176;BME280;52977;44.816;20.538;2022-10-15T14:46:45;99933.56;;;17.34;60.43
66176;BME280;52977;44.816;20.538;2022-10-15T14:49:16;99903.16;;;17.11;60.46
66176;BME280;52977;44.816;20.538;2022-10-15T14:51:43;99924.91;;;17.16;60.81
66176;BME280;52977;44.816;20.538;2022-10-15T14:54:17;99935.88;;;17.13;62.00
66176;BME280;52977;44.816;20.538;2022-10-15T14:56:45;99934.91;;;17.05;62.34
66176;BME280;52977;44.816;20.538;2022-10-15T14:59:16;99933.00;;;16.89;62.86
66176;BME280;52977;44.816;20.538;2022-10-15T15:01:55;99952.75;;;16.91;63.29
66176;BME280;52977;44.816;20.538;2022-10-15T15:04:44;99939.19;;;16.86;63.44
66176;BME280;52977;44.816;20.538;2022-10-15T15:07:18;99946.59;;;16.82;63.21
66176;BME280;52977;44.816;20.538;2022-10-15T15:09:51;99942.06;;;16.74;63.69
66176;BME280;52977;44.816;20.538;2022-10-15T15:12:21;99941.63;;;16.72;63.51
66176;BME280;52977;44.816;20.538;2022-10-15T15:14:49;99951.69;;;16.64;63.67
66176;BME280;52977;44.816;20.538;2022-10-15T15:17:21;99945.22;;;16.56;63.21
66176;BME280;52977;44.816;20.538;2022-10-15T15:19:49;99907.53;;;16.29;62.96
66176;BME280;52977;44.816;20.538;2022-10-15T15:22:21;99938.19;;;16.43;64.29
66176;BME280;52977;44.816;20.538;2022-10-15T15:24:48;99944.31;;;16.52;63.65
66176;BME280;52977;44.816;20.538;2022-10-15T15:27:30;99954.09;;;16.50;64.01
66176;BME280;52977;44.816;20.538;2022-10-15T15:29:56;99951.34;;;16.50;64.25
66176;BME280;52977;44.816;20.538;2022-10-15T15:32:23;99949.91;;;16.56;64.45
66176;BME280;52977;44.816;20.538;2022-10-15T15:34:50;99949.91;;;16.40;64.31
66176;BME280;52977;44.816;20.538;2022-10-15T15:37:21;99924.88;;;16.13;64.79
66176;BME280;52977;44.816;20.538;2022-10-15T15:39:47;99956.31;;;16.28;64.52
66176;BME280;52977;44.816;20.538;2022-10-15T15:42:15;99952.88;;;16.31;64.56
66176;BME280;52977;44.816;20.538;2022-10-15T15:44:42;99953.66;;;16.32;64.14
66176;BME280;52977;44.816;20.538;2022-10-15T15:47:08;99881.25;;;15.71;64.50
66176;BME280;52977;44.816;20.538;2022-10-15T15:49:35;99951.09;;;15.95;64.50
66176;BME280;52977;44.816;20.538;2022-10-15T15:52:04;99950.31;;;15.94;64.66
66176;BME280;52977;44.816;20.538;2022-10-15T15:54:30;99949.78;;;15.88;64.38
66176;BME280;52977;44.816;20.538;2022-10-15T15:56:56;99956.81;;;15.73;64.79
66176;BME280;52977;44.816;20.538;2022-10-15T15:59:23;99937.81;;;15.68;65.02
66176;BME280;52977;44.816;20.538;2022-10-15T16:01:49;99971.78;;;15.88;64.87
66176;BME280;52977;44.816;20.538;2022-10-15T16:04:15;99828.06;;;14.94;65.50
66176;BME280;52977;44.816;20.538;2022-10-15T16:06:42;99965.81;;;15.86;65.06
66176;BME280;52977;44.816;20.538;2022-10-15T16:09:08;99948.50;;;15.58;65.50
66176;BME280;52977;44.816;20.538;2022-10-15T16:11:37;99893.81;;;15.28;65.73
66176;BME280;52977;44.816;20.538;2022-10-15T16:14:03;99958.81;;;15.61;66.04
66176;BME280;52977;44.816;20.538;2022-10-15T16:16:29;99963.25;;;15.65;66.11
66176;BME280;52977;44.816;20.538;2022-10-15T16:18:55;99906.53;;;15.32;65.99
66176;BME280;52977;44.816;20.538;2022-10-15T16:21:25;99932.56;;;15.35;66.50
66176;BME280;52977;44.816;20.538;2022-10-15T16:23:50;99969.03;;;15.60;66.41
66176;BME280;52977;44.816;20.538;2022-10-15T16:26:17;99971.00;;;15.47;66.83
66176;BME280;52977;44.816;20.538;2022-10-15T16:28:44;99946.63;;;15.33;66.76
66176;BME280;52977;44.816;20.538;2022-10-15T16:31:18;99967.66;;;15.54;66.37
66176;BME280;52977;44.816;20.538;2022-10-15T16:33:46;99929.00;;;15.22;66.78
66176;BME280;52977;44.816;20.538;2022-10-15T16:36:12;99973.19;;;15.42;66.57
66176;BME280;52977;44.816;20.538;2022-10-15T16:38:40;99988.63;;;15.59;66.49
66176;BME280;52977;44.816;20.538;2022-10-15T16:41:08;99992.00;;;15.40;66.60
66176;BME280;52977;44.816;20.538;2022-10-15T16:43:35;99996.47;;;15.44;66.52
66176;BME280;52977;44.816;20.538;2022-10-15T16:46:01;100000.06;;;15.20;66.49
66176;BME280;52977;44.816;20.538;2022-10-15T16:48:32;99976.03;;;15.04;67.08
66176;BME280;52977;44.816;20.538;2022-10-15T16:51:14;100004.38;;;15.33;66.42
66176;BME280;52977;44.816;20.538;2022-10-15T16:53:43;100005.63;;;15.48;65.86
66176;BME280;52977;44.816;20.538;2022-10-15T16:56:20;99993.84;;;15.35;65.52
66176;BME280;52977;44.816;20.538;2022-10-15T16:58:47;99959.66;;;14.96;66.44
66176;BME280;52977;44.816;20.538;2022-10-15T17:01:15;100010.72;;;15.21;66.66
66176;BME280;52977;44.816;20.538;2022-10-15T17:03:42;100009.31;;;15.28;66.57
66176;BME280;52977;44.816;20.538;2022-10-15T17:06:15;100002.69;;;15.29;66.00
66176;BME280;52977;44.816;20.538;2022-10-15T17:08:45;100016.78;;;15.27;65.72
66176;BME280;52977;44.816;20.538;2022-10-15T17:11:17;100011.75;;;15.17;66.28
66176;BME280;52977;44.816;20.538;2022-10-15T17:13:44;99992.19;;;14.94;66.86
66176;BME280;52977;44.816;20.538;2022-10-15T17:16:15;99985.78;;;14.77;67.19
66176;BME280;52977;44.816;20.538;2022-10-15T17:18:43;99992.88;;;14.91;66.97
66176;BME280;52977;44.816;20.538;2022-10-15T17:21:11;100026.88;;;14.98;67.57
66176;BME280;52977;44.816;20.538;2022-10-15T17:23:38;99985.06;;;14.80;66.94
66176;BME280;52977;44.816;20.538;2022-10-15T17:26:06;99963.00;;;14.77;66.47
66176;BME280;52977;44.816;20.538;2022-10-15T17:28:33;100026.09;;;14.98;67.47
66176;BME280;52977;44.816;20.538;2022-10-15T17:31:07;99991.81;;;14.58;67.34
66176;BME280;52977;44.816;20.538;2022-10-15T17:33:35;100013.38;;;14.93;66.79
66176;BME280;52977;44.816;20.538;2022-10-15T17:36:04;100031.22;;;14.99;66.96
66176;BME280;52977;44.816;20.538;2022-10-15T17:38:31;100029.06;;;15.05;66.85
66176;BME280;52977;44.816;20.538;2022-10-15T17:40:58;100042.00;;;15.04;66.60
66176;BME280;52977;44.816;20.538;2022-10-15T17:43:27;100007.94;;;14.47;67.52
66176;BME280;52977;44.816;20.538;2022-10-15T17:45:59;100032.13;;;14.79;67.14
66176;BME280;52977;44.816;20.538;2022-10-15T17:48:26;100007.88;;;14.68;67.29
66176;BME280;52977;44.816;20.538;2022-10-15T17:50:51;100030.66;;;14.94;67.08
66176;BME280;52977;44.816;20.538;2022-10-15T17:53:18;99995.34;;;14.59;67.31
66176;BME280;52977;44.816;20.538;2022-10-15T17:55:43;100038.91;;;14.81;66.91
66176;BME280;52977;44.816;20.538;2022-10-15T17:58:10;100048.75;;;14.82;67.60
66176;BME280;52977;44.816;20.538;2022-10-15T18:00:36;100043.94;;;14.79;67.04
66176;BME280;52977;44.816;20.538;2022-10-15T18:03:03;100051.41;;;15.03;66.59
66176;BME280;52977;44.816;20.538;2022-10-15T18:05:30;100052.78;;;14.97;66.62
66176;BME280;52977;44.816;20.538;2022-10-15T18:07:56;100027.56;;;14.83;66.47
66176;BME280;52977;44.816;20.538;2022-10-15T18:10:26;100050.78;;;14.73;67.49
66176;BME280;52977;44.816;20.538;2022-10-15T18:12:53;100016.31;;;14.63;67.58
66176;BME280;52977;44.816;20.538;2022-10-15T18:15:18;99999.47;;;14.40;67.50
66176;BME280;52977;44.816;20.538;2022-10-15T18:17:45;100050.97;;;14.56;68.55
66176;BME280;52977;44.816;20.538;2022-10-15T18:20:11;100012.91;;;14.33;68.59
66176;BME280;52977;44.816;20.538;2022-10-15T18:22:38;100072.69;;;14.82;68.02
66176;BME280;52977;44.816;20.538;2022-10-15T18:25:05;100069.69;;;14.75;68.04
66176;BME280;52977;44.816;20.538;2022-10-15T18:27:31;100072.69;;;14.82;67.43
66176;BME280;52977;44.816;20.538;2022-10-15T18:29:58;100017.69;;;14.11;68.58
66176;BME280;52977;44.816;20.538;2022-10-15T18:32:23;100065.13;;;14.45;69.36
66176;BME280;52977;44.816;20.538;2022-10-15T18:34:51;100062.03;;;14.68;68.43
66176;BME280;52977;44.816;20.538;2022-10-15T18:37:16;100079.69;;;14.79;67.88
66176;BME280;52977;44.816;20.538;2022-10-15T18:39:43;100050.72;;;14.82;67.31
66176;BME280;52977;44.816;20.538;2022-10-15T18:42:10;100083.56;;;14.91;67.52
66176;BME280;52977;44.816;20.538;2022-10-15T18:44:36;100078.75;;;15.00;67.45
66176;BME280;52977;44.816;20.538;2022-10-15T18:47:02;100011.97;;;14.62;66.59
66176;BME280;52977;44.816;20.538;2022-10-15T18:49:32;100046.72;;;14.92;66.76
66176;BME280;52977;44.816;20.538;2022-10-15T18:51:58;100060.09;;;15.06;66.16
66176;BME280;52977;44.816;20.538;2022-10-15T18:54:27;100054.97;;;14.92;66.47
66176;BME280;52977;44.816;20.538;2022-10-15T18:56:52;100060.91;;;14.94;66.44
66176;BME280;52977;44.816;20.538;2022-10-15T18:59:19;100068.94;;;14.99;66.13
66176;BME280;52977;44.816;20.538;2022-10-15T19:01:47;100056.22;;;14.82;66.04
66176;BME280;52977;44.816;20.538;2022-10-15T19:04:16;100059.84;;;14.98;65.92
66176;BME280;52977;44.816;20.538;2022-10-15T19:06:45;100065.28;;;15.07;65.49
66176;BME280;52977;44.816;20.538;2022-10-15T19:09:15;100065.34;;;14.98;65.81
66176;BME280;52977;44.816;20.538;2022-10-15T19:11:43;100081.84;;;14.98;65.87
66176;BME280;52977;44.816;20.538;2022-10-15T19:14:10;100082.31;;;14.88;65.91
66176;BME280;52977;44.816;20.538;2022-10-15T19:16:35;100075.69;;;14.89;66.18
66176;BME280;52977;44.816;20.538;2022-10-15T19:19:06;100085.63;;;14.94;66.22
66176;BME280;52977;44.816;20.538;2022-10-15T19:21:33;100056.25;;;14.61;66.31
66176;BME280;52977;44.816;20.538;2022-10-15T19:24:00;100068.44;;;14.72;66.32
66176;BME280;52977;44.816;20.538;2022-10-15T19:26:27;100089.75;;;14.88;66.06
66176;BME280;52977;44.816;20.538;2022-10-15T19:28:55;100080.94;;;14.82;66.41
66176;BME280;52977;44.816;20.538;2022-10-15T19:31:30;100088.63;;;15.01;66.96
66176;BME280;52977;44.816;20.538;2022-10-15T19:33:58;100080.47;;;14.92;66.80
66176;BME280;52977;44.816;20.538;2022-10-15T19:36:33;100088.16;;;14.99;66.66
66176;BME280;52977;44.816;20.538;2022-10-15T19:39:03;100097.69;;;15.01;66.20
66176;BME280;52977;44.816;20.538;2022-10-15T19:41:29;100107.16;;;15.04;66.33